Time;durP1;ratioP1;P1;durP2;ratioP2;P2;SDS_P1;SDS_P2;PMS_P1;PMS_P2;Temp;Humidity;BMP_temperature;BMP_pressure;BME280_temperature;BME280_humidity;BME280_pressure;Samples;Min_cycle;Max_cycle;Signal;HPM_P1;HPM_P2
2022/03/17 00:00:09;;;;;;;32.67;27.40;;;;;;;;;;5005008;28;20542;-74
2022/03/17 00:02:36;;;;;;;37.70;31.85;;;;;;;;;;5023364;28;20079;-73
2022/03/17 00:05:03;;;;;;;38.20;30.02;;;;;;;;;;5019458;28;20032;-74
2022/03/17 00:07:30;;;;;;;38.75;31.55;;;;;;;;;;5021677;28;20037;-74
2022/03/17 00:09:56;;;;;;;38.38;30.67;;;;;;;;;;5022410;28;20065;-74
2022/03/17 00:12:21;;;;;;;39.53;31.05;;;;;;;;;;5020484;28;20084;-74
2022/03/17 00:14:47;;;;;;;27.30;23.88;;;;;;;;;;5023354;28;20432;-74
2022/03/17 00:17:13;;;;;;;42.25;32.08;;;;;;;;;;5022121;28;20033;-74
2022/03/17 00:19:39;;;;;;;38.85;31.33;;;;;;;;;;5006109;28;20060;-74
2022/03/17 00:22:08;;;;;;;41.53;31.95;;;;;;;;;;5019387;28;20418;-73
2022/03/17 00:24:36;;;;;;;43.40;31.92;;;;;;;;;;5019534;28;20400;-73
2022/03/17 00:27:05;;;;;;;37.20;30.20;;;;;;;;;;5024855;28;20687;-73
2022/03/17 00:29:33;;;;;;;38.58;28.30;;;;;;;;;;5023640;28;20033;-74
2022/03/17 00:31:58;;;;;;;36.38;29.90;;;;;;;;;;5021711;28;20044;-73
2022/03/17 00:34:24;;;;;;;38.33;32.03;;;;;;;;;;5019991;28;20037;-74
2022/03/17 00:36:50;;;;;;;38.65;30.52;;;;;;;;;;5008716;28;20128;-74
2022/03/17 00:39:16;;;;;;;36.00;28.83;;;;;;;;;;5020966;28;20033;-73
2022/03/17 00:41:43;;;;;;;37.47;27.90;;;;;;;;;;5021287;28;20026;-73
2022/03/17 00:44:10;;;;;;;41.22;32.70;;;;;;;;;;5018851;28;20624;-73
2022/03/17 00:46:36;;;;;;;37.30;30.45;;;;;;;;;;5020185;28;20038;-73
2022/03/17 00:49:03;;;;;;;28.00;24.98;;;;;;;;;;5020232;28;20033;-73
2022/03/17 00:51:29;;;;;;;41.65;31.58;;;;;;;;;;5023494;28;20043;-74
2022/03/17 00:53:54;;;;;;;39.25;31.42;;;;;;;;;;5022540;28;20026;-74
2022/03/17 01:07:54;;;;;;;35.95;27.45;;;;;;;;;;5016084;28;20057;-74
2022/03/17 01:10:20;;;;;;;39.45;30.85;;;;;;;;;;5018071;28;20084;-74
2022/03/17 01:12:46;;;;;;;42.10;31.95;;;;;;;;;;5025104;28;20028;-73
2022/03/17 01:15:17;;;;;;;29.70;25.70;;;;;;;;;;5027270;28;20060;-74
2022/03/17 01:17:44;;;;;;;37.63;31.10;;;;;;;;;;5023264;28;20065;-73
2022/03/17 01:20:11;;;;;;;35.85;27.02;;;;;;;;;;5025940;28;20029;-73
2022/03/17 01:22:36;;;;;;;38.92;31.25;;;;;;;;;;5025348;28;20049;-73
2022/03/17 01:25:03;;;;;;;32.90;27.45;;;;;;;;;;5028055;28;20034;-74
2022/03/17 01:27:29;;;;;;;32.60;27.02;;;;;;;;;;5022320;28;20094;-74
2022/03/17 01:29:55;;;;;;;39.13;31.95;;;;;;;;;;5023144;28;20033;-74
2022/03/17 01:32:22;;;;;;;37.92;30.45;;;;;;;;;;5023662;28;20117;-74
2022/03/17 01:34:48;;;;;;;37.08;28.20;;;;;;;;;;5022478;28;20116;-74
2022/03/17 01:37:14;;;;;;;41.25;31.88;;;;;;;;;;5023806;28;20033;-73
2022/03/17 01:39:40;;;;;;;34.30;27.05;;;;;;;;;;5027408;28;20029;-74
2022/03/17 01:42:09;;;;;;;32.05;25.52;;;;;;;;;;5026204;28;20037;-73
2022/03/17 01:44:35;;;;;;;38.83;30.55;;;;;;;;;;5018549;28;20040;-73
2022/03/17 01:49:46;;;;;;;41.05;31.65;;;;;;;;;;5029096;28;20029;-74
2022/03/17 01:52:12;;;;;;;35.42;28.88;;;;;;;;;;5017761;28;20060;-74
2022/03/17 01:54:38;;;;;;;33.10;26.15;;;;;;;;;;5019761;28;20030;-74
2022/03/17 01:57:06;;;;;;;25.63;21.27;;;;;;;;;;5020681;28;20118;-74
2022/03/17 01:59:32;;;;;;;38.92;28.58;;;;;;;;;;5016116;28;20034;-73
2022/03/17 02:01:58;;;;;;;32.50;26.70;;;;;;;;;;5014161;28;20054;-73
2022/03/17 02:04:24;;;;;;;42.28;31.67;;;;;;;;;;5023360;28;20679;-73
2022/03/17 02:06:51;;;;;;;39.97;30.45;;;;;;;;;;5015486;28;20496;-73
2022/03/17 02:09:18;;;;;;;34.80;27.67;;;;;;;;;;5018445;28;20025;-74
2022/03/17 02:14:30;;;;;;;35.30;27.40;;;;;;;;;;5021504;28;20030;-73
2022/03/17 02:16:56;;;;;;;39.65;29.60;;;;;;;;;;5017798;28;20041;-73
2022/03/17 02:19:24;;;;;;;27.90;24.63;;;;;;;;;;5018675;28;20034;-73
2022/03/17 02:21:50;;;;;;;27.88;23.48;;;;;;;;;;5013819;28;20025;-74
2022/03/17 02:27:01;;;;;;;31.67;25.38;;;;;;;;;;5015535;28;20034;-74
2022/03/17 02:29:27;;;;;;;36.13;27.55;;;;;;;;;;5013195;28;20044;-74
2022/03/17 02:31:53;;;;;;;26.75;24.00;;;;;;;;;;5014617;28;20045;-74
2022/03/17 02:34:19;;;;;;;35.83;28.58;;;;;;;;;;5016240;28;20116;-74
2022/03/17 02:36:47;;;;;;;37.95;27.42;;;;;;;;;;5012497;28;20045;-74
2022/03/17 02:39:13;;;;;;;37.80;29.75;;;;;;;;;;5014853;28;20038;-73
2022/03/17 02:41:39;;;;;;;39.67;30.63;;;;;;;;;;5019434;28;20041;-74
2022/03/17 02:44:05;;;;;;;39.40;30.58;;;;;;;;;;5018601;28;20504;-73
2022/03/17 02:46:31;;;;;;;39.35;29.90;;;;;;;;;;5009961;28;20042;-74
2022/03/17 02:48:56;;;;;;;42.95;31.40;;;;;;;;;;5022009;28;20025;-74
2022/03/17 02:51:22;;;;;;;38.55;28.25;;;;;;;;;;5014018;28;20041;-73
2022/03/17 02:53:48;;;;;;;38.47;30.75;;;;;;;;;;5016695;28;20069;-73
2022/03/17 02:56:14;;;;;;;37.40;29.77;;;;;;;;;;5010348;28;20206;-74
2022/03/17 02:58:39;;;;;;;40.00;31.60;;;;;;;;;;5018793;28;20431;-73
2022/03/17 03:01:05;;;;;;;30.08;24.17;;;;;;;;;;5014753;28;20064;-74
2022/03/17 03:03:30;;;;;;;39.90;28.98;;;;;;;;;;5019631;28;20315;-74
2022/03/17 03:05:56;;;;;;;41.83;31.35;;;;;;;;;;5013610;28;20037;-74
2022/03/17 03:08:22;;;;;;;40.47;31.33;;;;;;;;;;5012560;28;20038;-74
2022/03/17 03:10:52;;;;;;;43.60;31.42;;;;;;;;;;5017571;28;20068;-74
2022/03/17 03:13:18;;;;;;;40.22;30.33;;;;;;;;;;5013938;28;20187;-74
2022/03/17 03:15:44;;;;;;;42.38;30.70;;;;;;;;;;5016856;28;20813;-74
2022/03/17 03:18:10;;;;;;;42.47;30.50;;;;;;;;;;5011921;28;20149;-74
2022/03/17 03:20:37;;;;;;;41.65;31.13;;;;;;;;;;5018477;28;20180;-73
2022/03/17 03:23:03;;;;;;;48.67;32.70;;;;;;;;;;5011677;28;20112;-74
2022/03/17 03:25:29;;;;;;;38.75;28.35;;;;;;;;;;5020098;28;20136;-74
2022/03/17 03:27:54;;;;;;;38.10;29.48;;;;;;;;;;5009540;28;20099;-74
2022/03/17 03:30:20;;;;;;;43.65;30.77;;;;;;;;;;5013238;28;20034;-73
2022/03/17 03:32:47;;;;;;;45.13;32.38;;;;;;;;;;5012539;28;20069;-74
2022/03/17 03:37:58;;;;;;;42.30;30.23;;;;;;;;;;5015189;28;20092;-74
2022/03/17 03:40:24;;;;;;;41.80;31.38;;;;;;;;;;5013407;28;20607;-74
2022/03/17 03:42:50;;;;;;;42.92;31.25;;;;;;;;;;5017472;28;20044;-74
2022/03/17 03:45:16;;;;;;;37.75;29.02;;;;;;;;;;5017671;28;20037;-74
2022/03/17 03:47:42;;;;;;;42.10;28.92;;;;;;;;;;5012441;28;20025;-74
2022/03/17 03:50:09;;;;;;;40.05;30.40;;;;;;;;;;5009980;28;20033;-74
2022/03/17 03:52:35;;;;;;;38.55;27.77;;;;;;;;;;5014822;28;20080;-73
2022/03/17 03:55:00;;;;;;;31.50;26.20;;;;;;;;;;5027475;28;20041;-73
2022/03/17 03:57:26;;;;;;;42.50;29.70;;;;;;;;;;5020251;28;20452;-74
2022/03/17 03:59:52;;;;;;;43.00;30.63;;;;;;;;;;5019072;28;20033;-74
2022/03/17 04:02:18;;;;;;;44.17;32.38;;;;;;;;;;5000870;28;20037;-73
2022/03/17 04:04:44;;;;;;;45.33;33.00;;;;;;;;;;5024161;28;20468;-74
2022/03/17 04:07:11;;;;;;;47.25;32.80;;;;;;;;;;5017348;28;20556;-74
2022/03/17 04:09:39;;;;;;;42.83;31.65;;;;;;;;;;5009473;28;20440;-74
2022/03/17 04:12:08;;;;;;;39.75;30.15;;;;;;;;;;5021459;28;20044;-74
2022/03/17 04:14:33;;;;;;;42.13;31.02;;;;;;;;;;5017420;28;20029;-74
2022/03/17 04:16:59;;;;;;;43.58;32.33;;;;;;;;;;5012941;28;20190;-74
2022/03/17 04:19:26;;;;;;;42.10;31.52;;;;;;;;;;5014763;28;20037;-74
2022/03/17 04:21:53;;;;;;;33.03;26.05;;;;;;;;;;5016757;28;20221;-73
2022/03/17 04:24:19;;;;;;;32.42;26.90;;;;;;;;;;5012817;28;20524;-73
2022/03/17 04:26:45;;;;;;;37.60;27.88;;;;;;;;;;5014940;28;20049;-74
2022/03/17 04:29:12;;;;;;;44.35;32.50;;;;;;;;;;5015166;28;20109;-74
2022/03/17 04:31:39;;;;;;;40.53;30.55;;;;;;;;;;5021195;28;20079;-74
2022/03/17 04:34:05;;;;;;;45.83;31.65;;;;;;;;;;5019372;28;20129;-74
2022/03/17 04:36:31;;;;;;;44.50;32.08;;;;;;;;;;5008971;28;20678;-74
2022/03/17 04:38:58;;;;;;;44.70;33.60;;;;;;;;;;5014355;28;20041;-74
2022/03/17 04:41:24;;;;;;;42.00;30.60;;;;;;;;;;5014390;28;20056;-74
2022/03/17 04:43:49;;;;;;;42.10;31.33;;;;;;;;;;5014113;28;20374;-74
2022/03/17 04:46:16;;;;;;;39.67;29.58;;;;;;;;;;5028410;28;20308;-74
2022/03/17 04:48:42;;;;;;;42.83;31.27;;;;;;;;;;5017199;28;20296;-73
2022/03/17 04:51:08;;;;;;;39.17;30.08;;;;;;;;;;5013965;28;20041;-74
2022/03/17 04:53:34;;;;;;;39.72;30.50;;;;;;;;;;5021537;28;20033;-73
2022/03/17 04:56:09;;;;;;;42.30;30.83;;;;;;;;;;5014496;28;20030;-74
2022/03/17 04:58:36;;;;;;;42.03;30.83;;;;;;;;;;5019053;28;20068;-73
2022/03/17 05:01:03;;;;;;;39.63;27.63;;;;;;;;;;5018099;28;20029;-73
2022/03/17 05:03:29;;;;;;;39.88;29.67;;;;;;;;;;5017371;28;20041;-74
2022/03/17 05:05:55;;;;;;;39.17;27.58;;;;;;;;;;5018480;28;20048;-74
2022/03/17 05:08:21;;;;;;;39.47;30.63;;;;;;;;;;5015781;28;20040;-73
2022/03/17 05:10:48;;;;;;;39.63;28.13;;;;;;;;;;5021675;28;20064;-74
2022/03/17 05:13:15;;;;;;;44.70;32.10;;;;;;;;;;5018973;28;20113;-74
2022/03/17 05:15:41;;;;;;;40.53;30.50;;;;;;;;;;5022451;28;20025;-74
2022/03/17 05:18:08;;;;;;;40.25;28.85;;;;;;;;;;5013491;28;20083;-75
2022/03/17 05:20:35;;;;;;;38.33;27.23;;;;;;;;;;5024176;22;20065;-70
2022/03/17 05:23:06;;;;;;;38.97;29.20;;;;;;;;;;5007298;28;20497;-70
2022/03/17 05:25:31;;;;;;;42.67;29.25;;;;;;;;;;5005442;28;20057;-70
2022/03/17 05:27:57;;;;;;;40.72;25.92;;;;;;;;;;5006275;28;20076;-70
2022/03/17 05:30:23;;;;;;;40.47;29.20;;;;;;;;;;4993497;28;20059;-70
2022/03/17 05:32:49;;;;;;;40.60;29.55;;;;;;;;;;4972707;28;20535;-70
2022/03/17 05:35:16;;;;;;;43.15;30.13;;;;;;;;;;4989347;28;20054;-70
2022/03/17 05:37:43;;;;;;;37.53;27.63;;;;;;;;;;4987123;28;20034;-70
2022/03/17 05:40:15;;;;;;;40.65;29.60;;;;;;;;;;4979910;28;20130;-70
2022/03/17 05:42:56;;;;;;;38.53;28.05;;;;;;;;;;4988446;28;20393;-70
2022/03/17 05:45:25;;;;;;;33.88;26.48;;;;;;;;;;4979250;28;20057;-70
2022/03/17 05:47:52;;;;;;;37.65;28.60;;;;;;;;;;4980532;28;20053;-70
2022/03/17 05:50:21;;;;;;;43.75;30.05;;;;;;;;;;4981539;28;20039;-70
2022/03/17 05:52:47;;;;;;;37.92;27.40;;;;;;;;;;4977041;28;20053;-70
2022/03/17 05:55:15;;;;;;;40.55;30.13;;;;;;;;;;4983131;28;20034;-70
2022/03/17 05:57:43;;;;;;;43.13;31.17;;;;;;;;;;4982166;28;20033;-70
2022/03/17 06:00:11;;;;;;;44.25;29.95;;;;;;;;;;4979915;28;20041;-70
2022/03/17 06:02:38;;;;;;;39.13;29.92;;;;;;;;;;4971980;28;20058;-70
2022/03/17 06:05:05;;;;;;;39.47;29.85;;;;;;;;;;4983884;28;20023;-70
2022/03/17 06:07:48;;;;;;;37.40;26.35;;;;;;;;;;4986846;28;20290;-70
2022/03/17 06:10:17;;;;;;;37.13;29.10;;;;;;;;;;4977897;28;20046;-69
2022/03/17 06:12:44;;;;;;;40.72;27.23;;;;;;;;;;4987536;28;20446;-69
2022/03/17 06:15:11;;;;;;;42.88;29.83;;;;;;;;;;4981738;28;20062;-70
2022/03/17 06:17:43;;;;;;;36.95;27.70;;;;;;;;;;4976753;28;20588;-70
2022/03/17 06:20:12;;;;;;;39.53;29.67;;;;;;;;;;4976006;28;20050;-71
2022/03/17 06:22:39;;;;;;;39.22;29.40;;;;;;;;;;4981441;28;20030;-70
2022/03/17 06:25:06;;;;;;;39.35;28.27;;;;;;;;;;4982097;28;20034;-69
2022/03/17 06:27:34;;;;;;;41.08;29.83;;;;;;;;;;4978437;28;20109;-69
2022/03/17 06:30:00;;;;;;;34.83;25.95;;;;;;;;;;4980083;28;20331;-70
2022/03/17 06:32:26;;;;;;;41.53;30.30;;;;;;;;;;4988153;28;20054;-70
2022/03/17 06:34:51;;;;;;;40.65;26.88;;;;;;;;;;4989432;28;20042;-70
2022/03/17 06:37:17;;;;;;;38.88;28.70;;;;;;;;;;4968000;28;20054;-70
2022/03/17 06:39:43;;;;;;;38.13;28.85;;;;;;;;;;4972198;28;21082;-70
2022/03/17 06:42:08;;;;;;;68.05;36.22;;;;;;;;;;4986346;28;20034;-70
2022/03/17 06:44:34;;;;;;;93.43;49.88;;;;;;;;;;4983357;28;20053;-70
2022/03/17 06:46:59;;;;;;;49.28;34.28;;;;;;;;;;4970845;28;20039;-68
2022/03/17 06:49:25;;;;;;;39.88;30.65;;;;;;;;;;4971298;28;20101;-69
2022/03/17 06:51:50;;;;;;;34.72;27.63;;;;;;;;;;4984714;28;20057;-69
2022/03/17 06:54:16;;;;;;;43.40;29.27;;;;;;;;;;4974816;28;20054;-70
2022/03/17 06:56:41;;;;;;;40.95;31.05;;;;;;;;;;4989458;28;20038;-69
2022/03/17 06:59:07;;;;;;;40.33;30.80;;;;;;;;;;4985043;28;20363;-69
2022/03/17 07:01:33;;;;;;;41.65;30.88;;;;;;;;;;5004147;28;20132;-71
2022/03/17 07:03:58;;;;;;;38.08;27.60;;;;;;;;;;4985981;28;20034;-71
2022/03/17 07:06:24;;;;;;;36.33;28.10;;;;;;;;;;4981913;28;20118;-71
2022/03/17 07:08:49;;;;;;;39.83;28.40;;;;;;;;;;4969880;28;20050;-70
2022/03/17 07:11:15;;;;;;;40.60;30.00;;;;;;;;;;4978145;28;20384;-70
2022/03/17 07:13:41;;;;;;;40.25;30.10;;;;;;;;;;4984878;28;20041;-70
2022/03/17 07:16:07;;;;;;;38.88;29.25;;;;;;;;;;4976036;28;20114;-70
2022/03/17 07:18:32;;;;;;;38.47;29.08;;;;;;;;;;4971033;28;20046;-68
2022/03/17 07:20:59;;;;;;;43.22;31.65;;;;;;;;;;4984186;28;20038;-71
2022/03/17 07:23:24;;;;;;;43.38;31.65;;;;;;;;;;4983745;28;20041;-70
2022/03/17 07:25:50;;;;;;;46.03;33.75;;;;;;;;;;4986383;28;20038;-69
2022/03/17 07:28:18;;;;;;;47.95;35.35;;;;;;;;;;4985339;28;20413;-69
2022/03/17 07:30:43;;;;;;;47.75;34.75;;;;;;;;;;4983244;28;20034;-71
2022/03/17 07:33:10;;;;;;;41.15;32.67;;;;;;;;;;4972139;28;20031;-70
2022/03/17 07:35:36;;;;;;;47.58;33.88;;;;;;;;;;4969853;28;20030;-71
2022/03/17 07:38:03;;;;;;;44.13;30.63;;;;;;;;;;4973671;28;20026;-70
2022/03/17 07:40:29;;;;;;;50.10;31.80;;;;;;;;;;4984520;28;20093;-70
2022/03/17 07:42:55;;;;;;;40.15;30.80;;;;;;;;;;4989069;28;20442;-69
2022/03/17 07:45:29;;;;;;;42.38;30.65;;;;;;;;;;4984000;28;20435;-71
2022/03/17 07:48:15;;;;;;;39.80;29.58;;;;;;;;;;4978823;28;20066;-70
2022/03/17 07:50:59;;;;;;;38.65;29.80;;;;;;;;;;4968889;28;20135;-69
2022/03/17 07:53:25;;;;;;;38.83;27.83;;;;;;;;;;4981531;28;20579;-71
2022/03/17 07:55:54;;;;;;;43.53;31.20;;;;;;;;;;4985538;28;20081;-71
2022/03/17 07:58:24;;;;;;;39.35;30.50;;;;;;;;;;4970008;28;20038;-68
2022/03/17 08:00:57;;;;;;;41.03;31.10;;;;;;;;;;4969651;28;20057;-68
2022/03/17 08:03:23;;;;;;;43.28;31.67;;;;;;;;;;4976952;28;20500;-69
2022/03/17 08:05:49;;;;;;;40.58;31.42;;;;;;;;;;4982982;28;20096;-70
2022/03/17 08:08:16;;;;;;;40.88;31.17;;;;;;;;;;4969799;28;20049;-69
2022/03/17 08:10:42;;;;;;;39.40;30.67;;;;;;;;;;4975467;28;20215;-70
2022/03/17 08:13:09;;;;;;;41.47;30.10;;;;;;;;;;4988752;28;20049;-69
2022/03/17 08:15:39;;;;;;;40.15;30.50;;;;;;;;;;4986087;28;20022;-70
2022/03/17 08:18:08;;;;;;;40.80;30.48;;;;;;;;;;4986574;28;20062;-70
2022/03/17 08:20:38;;;;;;;;;;;;;;;;;;4977950;28;20061;-70
2022/03/17 08:23:04;;;;;;;40.03;31.10;;;;;;;;;;4978823;28;19918;-70
2022/03/17 08:25:30;;;;;;;37.92;30.00;;;;;;;;;;4969368;28;20561;-69
2022/03/17 08:27:56;;;;;;;40.97;31.23;;;;;;;;;;4974638;28;20113;-69
2022/03/17 08:30:21;;;;;;;38.78;31.67;;;;;;;;;;4982348;28;20038;-69
2022/03/17 08:32:48;;;;;;;39.60;31.05;;;;;;;;;;4970150;28;20039;-69
2022/03/17 08:35:14;;;;;;;45.10;29.60;;;;;;;;;;4970863;28;20065;-69
2022/03/17 08:37:41;;;;;;;41.67;30.65;;;;;;;;;;4984039;28;20117;-69
2022/03/17 08:40:08;;;;;;;42.42;31.58;;;;;;;;;;4976686;28;20455;-69
2022/03/17 08:42:34;;;;;;;52.92;36.60;;;;;;;;;;4986120;28;20042;-69
2022/03/17 08:44:59;;;;;;;39.33;30.15;;;;;;;;;;4983340;28;20034;-68
2022/03/17 08:50:09;;;;;;;42.95;31.80;;;;;;;;;;4985482;28;20041;-70
2022/03/17 08:52:35;;;;;;;46.53;32.20;;;;;;;;;;4984740;28;20125;-70
2022/03/17 08:55:01;;;;;;;43.67;32.63;;;;;;;;;;4983279;28;20133;-71
2022/03/17 08:57:26;;;;;;;44.40;34.08;;;;;;;;;;4984810;28;20713;-71
2022/03/17 08:59:53;;;;;;;47.08;33.75;;;;;;;;;;4984362;28;20069;-70
2022/03/17 09:02:19;;;;;;;46.53;33.30;;;;;;;;;;4980705;28;20175;-70
2022/03/17 09:04:45;;;;;;;44.88;32.58;;;;;;;;;;4979692;28;20062;-70
2022/03/17 09:07:11;;;;;;;43.17;33.92;;;;;;;;;;4986566;28;20033;-70
2022/03/17 09:09:38;;;;;;;42.88;33.25;;;;;;;;;;4972515;28;20035;-70
2022/03/17 09:12:08;;;;;;;43.80;33.13;;;;;;;;;;4978955;28;20397;-71
2022/03/17 09:14:36;;;;;;;45.50;35.33;;;;;;;;;;4978259;28;20085;-70
2022/03/17 09:17:02;;;;;;;45.30;34.53;;;;;;;;;;4982216;28;20061;-70
2022/03/17 09:19:28;;;;;;;44.53;32.65;;;;;;;;;;4982531;28;20096;-70
2022/03/17 09:21:54;;;;;;;47.90;35.20;;;;;;;;;;4996209;28;20413;-69
2022/03/17 09:24:19;;;;;;;47.17;34.75;;;;;;;;;;4985632;28;20023;-68
2022/03/17 09:26:46;;;;;;;46.25;34.60;;;;;;;;;;4984217;28;20077;-69
2022/03/17 09:29:12;;;;;;;43.58;34.20;;;;;;;;;;4978882;28;20067;-70
2022/03/17 09:31:37;;;;;;;46.80;33.58;;;;;;;;;;4982889;28;20034;-70
2022/03/17 09:34:04;;;;;;;46.15;34.70;;;;;;;;;;4984657;28;20039;-70
2022/03/17 09:36:30;;;;;;;54.70;35.45;;;;;;;;;;4982215;28;20026;-70
2022/03/17 09:41:42;;;;;;;43.40;32.67;;;;;;;;;;4991107;28;20044;-70
2022/03/17 09:44:07;;;;;;;44.72;34.85;;;;;;;;;;4985271;28;20064;-70
2022/03/17 09:46:34;;;;;;;45.90;34.97;;;;;;;;;;4973496;28;20042;-70
2022/03/17 09:49:03;;;;;;;54.58;36.67;;;;;;;;;;4985556;28;20454;-70
2022/03/17 09:51:29;;;;;;;45.55;35.22;;;;;;;;;;4990959;28;20325;-70
2022/03/17 09:54:00;;;;;;;45.47;34.38;;;;;;;;;;4989282;28;20077;-70
2022/03/17 09:56:27;;;;;;;50.25;35.88;;;;;;;;;;4983822;28;20501;-70
2022/03/17 09:58:57;;;;;;;46.08;34.17;;;;;;;;;;4972947;28;20511;-70
2022/03/17 10:01:26;;;;;;;44.60;33.45;;;;;;;;;;4977159;28;20493;-69
2022/03/17 10:03:58;;;;;;;45.38;33.45;;;;;;;;;;4984059;28;20139;-69
2022/03/17 10:06:24;;;;;;;45.15;32.33;;;;;;;;;;4983998;28;20102;-68
2022/03/17 10:08:50;;;;;;;44.25;33.60;;;;;;;;;;4978028;28;20078;-69
2022/03/17 10:11:16;;;;;;;47.17;33.45;;;;;;;;;;4989005;28;20052;-70
2022/03/17 10:13:47;;;;;;;45.72;32.42;;;;;;;;;;5001710;28;20141;-69
2022/03/17 10:16:21;;;;;;;45.40;32.40;;;;;;;;;;4998630;28;20477;-70
2022/03/17 10:19:02;;;;;;;44.08;33.67;;;;;;;;;;4993976;28;20186;-70
2022/03/17 10:21:29;;;;;;;44.67;33.15;;;;;;;;;;4981964;28;20350;-69
2022/03/17 10:24:08;;;;;;;44.95;34.65;;;;;;;;;;4976172;28;20039;-69
2022/03/17 10:26:51;;;;;;;43.53;32.75;;;;;;;;;;4986758;28;20175;-69
2022/03/17 10:29:20;;;;;;;43.33;34.17;;;;;;;;;;4977988;28;20070;-69
2022/03/17 10:32:03;;;;;;;42.55;34.38;;;;;;;;;;4977332;28;20034;-70
2022/03/17 10:34:51;;;;;;;43.10;32.95;;;;;;;;;;4978184;28;20030;-70
2022/03/17 10:37:21;;;;;;;43.92;32.65;;;;;;;;;;4984903;28;20060;-69
2022/03/17 10:39:50;;;;;;;42.58;34.22;;;;;;;;;;4973528;28;20568;-69
2022/03/17 10:42:17;;;;;;;43.53;32.47;;;;;;;;;;4979876;28;20034;-70
2022/03/17 10:44:51;;;;;;;42.90;33.30;;;;;;;;;;4983975;28;20117;-69
2022/03/17 10:47:27;;;;;;;41.75;33.22;;;;;;;;;;4977901;28;20046;-70
2022/03/17 10:50:12;;;;;;;45.25;33.53;;;;;;;;;;4971160;28;20055;-70
2022/03/17 10:52:56;;;;;;;47.38;33.50;;;;;;;;;;4981123;28;20414;-70
2022/03/17 10:55:30;;;;;;;45.58;32.65;;;;;;;;;;4984250;28;20042;-70
2022/03/17 10:58:11;;;;;;;42.13;32.38;;;;;;;;;;4971442;28;20054;-69
2022/03/17 11:00:48;;;;;;;43.95;33.65;;;;;;;;;;4975851;28;20077;-70
2022/03/17 11:03:15;;;;;;;48.03;33.60;;;;;;;;;;4984524;28;20076;-70
2022/03/17 11:05:41;;;;;;;45.35;33.05;;;;;;;;;;4969726;28;20123;-69
2022/03/17 11:08:10;;;;;;;47.17;34.08;;;;;;;;;;4970968;28;20125;-69
2022/03/17 11:10:36;;;;;;;49.03;35.10;;;;;;;;;;4980815;28;20034;-69
2022/03/17 11:13:11;;;;;;;49.92;36.08;;;;;;;;;;4990473;28;20341;-69
2022/03/17 11:15:40;;;;;;;45.60;35.50;;;;;;;;;;4976724;28;20035;-69
2022/03/17 11:18:10;;;;;;;50.15;34.10;;;;;;;;;;4981018;28;20129;-69
2022/03/17 11:20:36;;;;;;;45.72;33.90;;;;;;;;;;5040991;22;20055;-77
2022/03/17 11:23:16;;;;;;;46.17;32.67;;;;;;;;;;5047425;28;20384;-76
2022/03/17 11:25:58;;;;;;;44.47;33.53;;;;;;;;;;5017788;28;20033;-77
2022/03/17 11:28:36;;;;;;;46.67;32.38;;;;;;;;;;5042760;28;20038;-76
2022/03/17 11:31:07;;;;;;;43.03;32.65;;;;;;;;;;5030037;28;20037;-76
2022/03/17 11:33:45;;;;;;;46.60;35.53;;;;;;;;;;5043422;28;20035;-77
2022/03/17 11:36:15;;;;;;;45.70;32.97;;;;;;;;;;5045739;28;20035;-77
2022/03/17 11:41:27;;;;;;;42.85;33.53;;;;;;;;;;5018602;28;20116;-77
2022/03/17 11:43:53;;;;;;;46.55;33.38;;;;;;;;;;5038425;28;20488;-76
2022/03/17 11:46:25;;;;;;;49.83;32.45;;;;;;;;;;5038584;28;20038;-77
2022/03/17 11:48:56;;;;;;;50.58;33.65;;;;;;;;;;5012520;28;20033;-77
2022/03/17 11:51:25;;;;;;;54.05;32.60;;;;;;;;;;5018714;28;20036;-75
2022/03/17 11:53:50;;;;;;;45.70;31.73;;;;;;;;;;5005063;28;20048;-76
2022/03/17 11:56:32;;;;;;;39.90;31.60;;;;;;;;;;5034076;28;20030;-76
2022/03/17 11:58:58;;;;;;;48.35;32.25;;;;;;;;;;5036855;28;20148;-75
2022/03/17 12:01:28;;;;;;;44.80;32.40;;;;;;;;;;5048851;28;20504;-76
2022/03/17 12:03:56;;;;;;;41.70;33.00;;;;;;;;;;5049574;28;20535;-76
2022/03/17 12:06:29;;;;;;;44.28;32.63;;;;;;;;;;5020724;28;20043;-76
2022/03/17 12:09:03;;;;;;;49.30;35.95;;;;;;;;;;5017452;28;20041;-77
2022/03/17 12:11:36;;;;;;;45.95;33.72;;;;;;;;;;5034423;28;20578;-76
2022/03/17 12:14:10;;;;;;;50.38;32.42;;;;;;;;;;5039576;28;20468;-77
2022/03/17 12:16:40;;;;;;;44.13;32.88;;;;;;;;;;5028194;28;20037;-77
2022/03/17 12:19:05;;;;;;;44.20;31.73;;;;;;;;;;5032785;28;20041;-76
2022/03/17 12:22:02;;;;;;;48.90;33.45;;;;;;;;;;5011955;28;20124;-76
2022/03/17 12:24:48;;;;;;;44.03;32.47;;;;;;;;;;5033838;28;20492;-77
2022/03/17 12:27:53;;;;;;;46.97;32.05;;;;;;;;;;5023921;28;20053;-77
2022/03/17 12:30:20;;;;;;;47.13;33.05;;;;;;;;;;4987602;28;20049;-76
2022/03/17 12:32:48;;;;;;;48.92;36.13;;;;;;;;;;4985815;28;20112;-77
2022/03/17 12:35:15;;;;;;;50.88;35.92;;;;;;;;;;4986598;28;20150;-77
2022/03/17 12:37:43;;;;;;;50.20;34.65;;;;;;;;;;4987375;28;20054;-77
2022/03/17 12:40:20;;;;;;;53.85;36.92;;;;;;;;;;4986655;28;20038;-76
2022/03/17 12:42:47;;;;;;;56.08;36.92;;;;;;;;;;4989298;28;20077;-77
2022/03/17 12:45:17;;;;;;;56.10;40.50;;;;;;;;;;4986471;28;20051;-74
2022/03/17 12:47:52;;;;;;;56.42;39.30;;;;;;;;;;4968846;28;20096;-75
2022/03/17 12:50:20;;;;;;;52.50;35.78;;;;;;;;;;4985495;28;20053;-73
2022/03/17 12:52:48;;;;;;;50.40;35.45;;;;;;;;;;4986338;28;20141;-77
2022/03/17 12:55:15;;;;;;;49.47;34.53;;;;;;;;;;4971342;28;20034;-78
2022/03/17 12:57:42;;;;;;;53.55;36.28;;;;;;;;;;4986015;28;20540;-77
2022/03/17 13:00:12;;;;;;;54.17;37.50;;;;;;;;;;4969452;28;20037;-77
2022/03/17 13:02:47;;;;;;;48.95;35.55;;;;;;;;;;4981984;28;20046;-76
2022/03/17 13:08:04;;;;;;;50.17;36.42;;;;;;;;;;5008766;28;20047;-77
2022/03/17 13:14:20;;;;;;;51.88;35.88;;;;;;;;;;5040685;28;20036;-76
2022/03/17 13:16:01;;;;;;;46.88;34.08;;;;;;;;;;5027005;28;20196;-77
2022/03/17 13:18:49;;;;;;;45.58;33.45;;;;;;;;;;5043623;28;20065;-77
2022/03/17 13:21:20;;;;;;;48.43;33.27;;;;;;;;;;5014177;28;20037;-77
2022/03/17 13:23:46;;;;;;;48.92;33.42;;;;;;;;;;5018542;28;20562;-76
2022/03/17 13:26:12;;;;;;;49.17;34.10;;;;;;;;;;5022193;28;20050;-77
2022/03/17 13:28:38;;;;;;;51.95;34.10;;;;;;;;;;5031334;28;20121;-77
2022/03/17 13:31:04;;;;;;;51.22;35.67;;;;;;;;;;5032368;28;20041;-76
2022/03/17 13:33:32;;;;;;;43.53;33.13;;;;;;;;;;5019325;28;20064;-76
2022/03/17 13:35:59;;;;;;;45.95;34.97;;;;;;;;;;5043784;28;20033;-76
2022/03/17 13:38:33;;;;;;;49.92;36.95;;;;;;;;;;5008062;28;20045;-76
2022/03/17 13:41:00;;;;;;;49.78;35.58;;;;;;;;;;5032527;28;20064;-77
2022/03/17 13:43:37;;;;;;;51.50;35.38;;;;;;;;;;5027203;28;20086;-76
2022/03/17 13:46:23;;;;;;;45.97;34.38;;;;;;;;;;5031530;28;20477;-76
2022/03/17 13:48:48;;;;;;;43.63;34.05;;;;;;;;;;5032873;28;20045;-77
2022/03/17 13:51:23;;;;;;;50.13;34.95;;;;;;;;;;5026329;28;20033;-76
2022/03/17 13:53:49;;;;;;;50.65;35.50;;;;;;;;;;4997812;28;20140;-76
2022/03/17 13:56:17;;;;;;;45.70;34.25;;;;;;;;;;5030389;28;20133;-76
2022/03/17 13:58:43;;;;;;;53.22;36.33;;;;;;;;;;5011064;28;20053;-75
2022/03/17 14:01:16;;;;;;;48.13;35.70;;;;;;;;;;5025995;28;20124;-76
2022/03/17 14:03:49;;;;;;;44.88;33.60;;;;;;;;;;5035482;28;20048;-76
2022/03/17 14:06:17;;;;;;;44.13;33.25;;;;;;;;;;5012205;28;20409;-76
2022/03/17 14:08:47;;;;;;;47.33;34.43;;;;;;;;;;5034060;28;20549;-76
2022/03/17 14:11:15;;;;;;;51.92;38.42;;;;;;;;;;5023036;28;20044;-76
2022/03/17 14:13:57;;;;;;;47.88;34.03;;;;;;;;;;5043272;28;20040;-76
2022/03/17 14:16:24;;;;;;;50.20;37.95;;;;;;;;;;5032037;28;20033;-77
2022/03/17 14:18:51;;;;;;;47.50;35.22;;;;;;;;;;5036417;28;20098;-76
2022/03/17 14:21:19;;;;;;;44.35;33.42;;;;;;;;;;5038434;28;20040;-76
2022/03/17 14:26:34;;;;;;;46.47;33.13;;;;;;;;;;5030179;28;20047;-76
2022/03/17 14:29:02;;;;;;;48.85;36.33;;;;;;;;;;5039732;28;20060;-76
2022/03/17 14:31:30;;;;;;;50.85;32.58;;;;;;;;;;5032263;28;20072;-76
2022/03/17 14:33:56;;;;;;;51.00;33.45;;;;;;;;;;5028894;28;20224;-77
2022/03/17 14:36:24;;;;;;;50.50;36.00;;;;;;;;;;5025742;28;20079;-76
2022/03/17 14:38:53;;;;;;;46.38;32.10;;;;;;;;;;5031618;28;20116;-75
2022/03/17 14:41:20;;;;;;;48.30;34.70;;;;;;;;;;5031490;28;20100;-77
2022/03/17 14:43:51;;;;;;;51.38;34.85;;;;;;;;;;5024091;28;20037;-76
2022/03/17 14:46:20;;;;;;;44.17;33.58;;;;;;;;;;5043344;28;20399;-76
2022/03/17 14:48:46;;;;;;;44.77;34.40;;;;;;;;;;5011687;28;20041;-76
2022/03/17 14:51:12;;;;;;;48.30;34.75;;;;;;;;;;5010045;28;20045;-76
2022/03/17 14:53:38;;;;;;;46.83;35.30;;;;;;;;;;5029241;28;20048;-77
2022/03/17 14:56:09;;;;;;;46.25;34.42;;;;;;;;;;5031903;28;20117;-75
2022/03/17 14:58:40;;;;;;;48.58;35.85;;;;;;;;;;5012343;28;20091;-76
2022/03/17 15:01:11;;;;;;;46.40;37.15;;;;;;;;;;5008898;28;20045;-76
2022/03/17 15:03:45;;;;;;;54.13;37.55;;;;;;;;;;5025477;28;20091;-76